WZZ28A EPMO-EPKT
Flight info
| Callsign | WZZ28A |
|---|---|
| Flight time | 0h 30m |
| Altitude | 32000 |
| Route | EVINA M66 NEGUV/N0373F280 M66 KUKAM |
| Aircraft | A20N/M-SDE2E3FGHIRWXY/LB1 |
Departure
| Time | 2026-04-28 16:58 |
|---|---|
| Airport | Warsaw Modlin Airport (EPMO) |
Arrival
| Time | 2026-04-28 17:29 |
|---|---|
| Airport | Katowice Wojciech Korfanty International Airport (EPKT) |
| Time | Latitude | Longitude | Altitude | Speed | Heading |
|---|---|---|---|---|---|
| 2026-04-28 16:43 | 52.44722 | 20.65019 | 338 ft | 0 kts | 206° |
| 2026-04-28 16:50 | 52.44723 | 20.65019 | 338 ft | 1 kts | 206° |
| 2026-04-28 16:51 | 52.44729 | 20.65025 | 338 ft | 1 kts | 202° |
| 2026-04-28 16:51 | 52.44737 | 20.65029 | 334 ft | 1 kts | 187° |
| 2026-04-28 16:51 | 52.44745 | 20.65031 | 335 ft | 1 kts | 173° |
| 2026-04-28 16:51 | 52.44752 | 20.65029 | 332 ft | 1 kts | 158° |
| 2026-04-28 16:52 | 52.44759 | 20.65023 | 332 ft | 1 kts | 142° |
| 2026-04-28 16:52 | 52.44765 | 20.65015 | 333 ft | 1 kts | 127° |
| 2026-04-28 16:52 | 52.44770 | 20.65005 | 337 ft | 1 kts | 109° |
| 2026-04-28 16:52 | 52.44771 | 20.65002 | 337 ft | 0 kts | 102° |
| 2026-04-28 16:53 | 52.44770 | 20.65005 | 337 ft | 2 kts | 101° |
| 2026-04-28 16:54 | 52.44771 | 20.65068 | 336 ft | 10 kts | 83° |
| 2026-04-28 16:54 | 52.44789 | 20.65238 | 338 ft | 19 kts | 80° |
| 2026-04-28 16:54 | 52.44810 | 20.65479 | 336 ft | 23 kts | 81° |
| 2026-04-28 16:54 | 52.44827 | 20.65660 | 338 ft | 25 kts | 82° |
| 2026-04-28 16:55 | 52.44861 | 20.66055 | 338 ft | 27 kts | 81° |
| 2026-04-28 16:55 | 52.44894 | 20.66361 | 336 ft | 28 kts | 80° |
| 2026-04-28 16:55 | 52.44923 | 20.66682 | 338 ft | 29 kts | 83° |
| 2026-04-28 16:55 | 52.44953 | 20.67005 | 333 ft | 18 kts | 78° |
| 2026-04-28 16:56 | 52.44986 | 20.67076 | 336 ft | 9 kts | 32° |
| 2026-04-28 16:56 | 52.45046 | 20.67070 | 334 ft | 10 kts | 353° |
| 2026-04-28 16:56 | 52.45126 | 20.67050 | 337 ft | 13 kts | 351° |
| 2026-04-28 16:56 | 52.45181 | 20.67034 | 335 ft | 0 kts | 346° |
| 2026-04-28 16:57 | 52.45217 | 20.67019 | 337 ft | 13 kts | 345° |
| 2026-04-28 16:57 | 52.45280 | 20.66844 | 333 ft | 27 kts | 259° |
| 2026-04-28 16:57 | 52.45234 | 20.66302 | 335 ft | 80 kts | 262° |
| 2026-04-28 16:58 | 52.45115 | 20.65095 | 338 ft | 134 kts | 261° |
| 2026-04-28 16:58 | 52.44953 | 20.63370 | 493 ft | 164 kts | 261° |
| 2026-04-28 16:58 | 52.44782 | 20.61397 | 892 ft | 182 kts | 261° |
| 2026-04-28 16:58 | 52.44596 | 20.59295 | 1359 ft | 195 kts | 261° |
| 2026-04-28 16:59 | 52.44395 | 20.57051 | 1785 ft | 200 kts | 261° |
| 2026-04-28 16:59 | 52.44507 | 20.54767 | 2294 ft | 210 kts | 294° |
| 2026-04-28 16:59 | 52.45403 | 20.52867 | 3113 ft | 216 kts | 313° |
| 2026-04-28 16:59 | 52.46181 | 20.50641 | 3681 ft | 237 kts | 282° |
| 2026-04-28 17:00 | 52.46153 | 20.47876 | 4314 ft | 257 kts | 253° |
| 2026-04-28 17:00 | 52.45233 | 20.45295 | 5180 ft | 266 kts | 224° |
| 2026-04-28 17:00 | 52.43671 | 20.43732 | 6200 ft | 270 kts | 197° |
| 2026-04-28 17:00 | 52.41783 | 20.43501 | 7218 ft | 275 kts | 170° |
| 2026-04-28 17:01 | 52.39930 | 20.44399 | 8207 ft | 280 kts | 161° |
| 2026-04-28 17:01 | 52.38055 | 20.45292 | 9198 ft | 284 kts | 168° |
| 2026-04-28 17:01 | 52.36097 | 20.45775 | 10165 ft | 288 kts | 175° |
| 2026-04-28 17:01 | 52.34026 | 20.45900 | 10755 ft | 308 kts | 180° |
| 2026-04-28 17:02 | 52.31791 | 20.45776 | 11140 ft | 332 kts | 183° |
| 2026-04-28 17:02 | 52.30225 | 20.45616 | 11514 ft | 341 kts | 184° |
| 2026-04-28 17:02 | 52.27057 | 20.45245 | 12663 ft | 347 kts | 184° |
| 2026-04-28 17:02 | 52.24653 | 20.44965 | 13508 ft | 351 kts | 184° |
| 2026-04-28 17:03 | 52.20532 | 20.44508 | 14865 ft | 359 kts | 184° |
| 2026-04-28 17:03 | 52.18037 | 20.44240 | 15654 ft | 363 kts | 184° |
| 2026-04-28 17:03 | 52.15501 | 20.43971 | 16419 ft | 367 kts | 184° |
| 2026-04-28 17:04 | 52.10313 | 20.43423 | 17882 ft | 376 kts | 184° |
| 2026-04-28 17:04 | 52.07727 | 20.43150 | 18573 ft | 380 kts | 184° |
| 2026-04-28 17:05 | 52.02364 | 20.42585 | 19926 ft | 388 kts | 184° |
| 2026-04-28 17:05 | 51.99681 | 20.42303 | 20578 ft | 392 kts | 184° |
| 2026-04-28 17:05 | 51.96923 | 20.42014 | 21210 ft | 396 kts | 184° |
| 2026-04-28 17:06 | 51.91388 | 20.41434 | 22425 ft | 403 kts | 184° |
| 2026-04-28 17:06 | 51.88559 | 20.41139 | 23014 ft | 407 kts | 184° |
| 2026-04-28 17:06 | 51.82881 | 20.40547 | 23914 ft | 414 kts | 184° |
| 2026-04-28 17:07 | 51.79990 | 20.40246 | 23996 ft | 415 kts | 184° |
| 2026-04-28 17:07 | 51.77105 | 20.39947 | 24000 ft | 414 kts | 184° |
| 2026-04-28 17:07 | 51.74250 | 20.39650 | 24000 ft | 414 kts | 184° |
| 2026-04-28 17:07 | 51.71379 | 20.39202 | 23999 ft | 414 kts | 192° |
| 2026-04-28 17:08 | 51.68680 | 20.37757 | 24001 ft | 414 kts | 206° |
| 2026-04-28 17:08 | 51.66186 | 20.35413 | 23999 ft | 414 kts | 212° |
| 2026-04-28 17:08 | 51.63721 | 20.32957 | 24000 ft | 414 kts | 212° |
| 2026-04-28 17:08 | 51.61297 | 20.30538 | 24000 ft | 414 kts | 212° |
| 2026-04-28 17:09 | 51.58843 | 20.28101 | 24000 ft | 414 kts | 212° |
| 2026-04-28 17:09 | 51.56387 | 20.25673 | 23999 ft | 413 kts | 212° |
| 2026-04-28 17:09 | 51.53940 | 20.23264 | 23841 ft | 411 kts | 211° |
| 2026-04-28 17:09 | 51.51544 | 20.20870 | 23417 ft | 407 kts | 213° |
| 2026-04-28 17:10 | 51.49153 | 20.18448 | 22863 ft | 405 kts | 212° |
| 2026-04-28 17:10 | 51.46741 | 20.16097 | 22265 ft | 402 kts | 211° |
| 2026-04-28 17:10 | 51.44366 | 20.13805 | 21681 ft | 398 kts | 211° |
| 2026-04-28 17:10 | 51.41997 | 20.11514 | 21104 ft | 395 kts | 211° |
| 2026-04-28 17:11 | 51.39670 | 20.09257 | 20532 ft | 391 kts | 211° |
| 2026-04-28 17:11 | 51.37347 | 20.07001 | 19957 ft | 388 kts | 211° |
| 2026-04-28 17:11 | 51.35072 | 20.04790 | 19389 ft | 385 kts | 211° |
| 2026-04-28 17:11 | 51.32782 | 20.02567 | 18815 ft | 381 kts | 211° |
| 2026-04-28 17:12 | 51.30532 | 20.00385 | 18255 ft | 378 kts | 211° |
| 2026-04-28 17:12 | 51.28287 | 19.98211 | 17691 ft | 375 kts | 211° |
| 2026-04-28 17:12 | 51.26080 | 19.96076 | 17134 ft | 372 kts | 211° |
| 2026-04-28 17:12 | 51.23853 | 19.93963 | 16574 ft | 368 kts | 207° |
| 2026-04-28 17:13 | 51.21460 | 19.92617 | 15837 ft | 363 kts | 194° |
| 2026-04-28 17:13 | 51.19008 | 19.91650 | 15021 ft | 360 kts | 194° |
| 2026-04-28 17:13 | 51.16593 | 19.90731 | 14475 ft | 358 kts | 193° |
| 2026-04-28 17:13 | 51.14181 | 19.89814 | 13958 ft | 355 kts | 194° |
| 2026-04-28 17:14 | 51.11782 | 19.88897 | 13422 ft | 352 kts | 194° |
| 2026-04-28 17:14 | 51.09438 | 19.87996 | 12900 ft | 349 kts | 194° |
| 2026-04-28 17:14 | 51.07073 | 19.87085 | 12376 ft | 346 kts | 194° |
| 2026-04-28 17:14 | 51.04730 | 19.86181 | 11857 ft | 344 kts | 194° |
| 2026-04-28 17:15 | 51.02472 | 19.85311 | 11663 ft | 331 kts | 194° |
| 2026-04-28 17:15 | 51.00271 | 19.84464 | 11530 ft | 317 kts | 194° |
| 2026-04-28 17:15 | 50.98181 | 19.83673 | 11409 ft | 304 kts | 193° |
| 2026-04-28 17:15 | 50.96160 | 19.82919 | 11221 ft | 294 kts | 194° |
| 2026-04-28 17:16 | 50.94168 | 19.82150 | 10827 ft | 292 kts | 194° |
| 2026-04-28 17:16 | 50.92192 | 19.81383 | 10399 ft | 292 kts | 194° |
| 2026-04-28 17:16 | 50.90239 | 19.80628 | 10025 ft | 290 kts | 194° |
| 2026-04-28 17:16 | 50.88285 | 19.79874 | 9648 ft | 287 kts | 194° |
| 2026-04-28 17:17 | 50.86342 | 19.79162 | 9232 ft | 284 kts | 187° |
| 2026-04-28 17:17 | 50.84412 | 19.78597 | 8800 ft | 281 kts | 193° |
| 2026-04-28 17:17 | 50.82521 | 19.77860 | 8363 ft | 282 kts | 195° |
| 2026-04-28 17:17 | 50.80622 | 19.77061 | 7974 ft | 280 kts | 195° |
| 2026-04-28 17:18 | 50.78737 | 19.76282 | 7599 ft | 279 kts | 194° |
| 2026-04-28 17:18 | 50.76879 | 19.75541 | 7228 ft | 277 kts | 194° |
| 2026-04-28 17:18 | 50.75007 | 19.74813 | 6847 ft | 276 kts | 194° |
| 2026-04-28 17:18 | 50.73144 | 19.74098 | 6468 ft | 274 kts | 194° |
| 2026-04-28 17:19 | 50.71286 | 19.73389 | 6094 ft | 273 kts | 194° |
| 2026-04-28 17:19 | 50.69463 | 19.72696 | 5731 ft | 271 kts | 194° |
| 2026-04-28 17:19 | 50.67622 | 19.71997 | 5369 ft | 269 kts | 194° |
| 2026-04-28 17:19 | 50.65877 | 19.71334 | 5220 ft | 249 kts | 194° |
| 2026-04-28 17:20 | 50.64248 | 19.70716 | 4875 ft | 229 kts | 194° |
| 2026-04-28 17:20 | 50.63227 | 19.70326 | 4801 ft | 237 kts | 194° |
| 2026-04-28 17:20 | 50.61095 | 19.69516 | 4757 ft | 236 kts | 194° |
| 2026-04-28 17:20 | 50.59494 | 19.68908 | 4760 ft | 236 kts | 194° |
| 2026-04-28 17:21 | 50.57892 | 19.68302 | 4767 ft | 236 kts | 194° |
| 2026-04-28 17:21 | 50.56293 | 19.67698 | 4758 ft | 236 kts | 194° |
| 2026-04-28 17:21 | 50.54713 | 19.67100 | 4764 ft | 236 kts | 194° |
| 2026-04-28 17:22 | 50.51524 | 19.65895 | 4757 ft | 236 kts | 194° |
| 2026-04-28 17:22 | 50.49985 | 19.65008 | 4761 ft | 235 kts | 215° |
| 2026-04-28 17:22 | 50.48936 | 19.63095 | 4766 ft | 236 kts | 246° |
| 2026-04-28 17:23 | 50.48489 | 19.58020 | 4756 ft | 236 kts | 266° |
| 2026-04-28 17:23 | 50.48393 | 19.55434 | 4760 ft | 236 kts | 266° |
| 2026-04-28 17:23 | 50.48283 | 19.52851 | 4758 ft | 236 kts | 265° |
| 2026-04-28 17:23 | 50.48159 | 19.50292 | 4757 ft | 236 kts | 265° |
| 2026-04-28 17:24 | 50.48024 | 19.47712 | 4766 ft | 236 kts | 265° |
| 2026-04-28 17:24 | 50.47804 | 19.45188 | 4766 ft | 236 kts | 260° |
| 2026-04-28 17:24 | 50.47601 | 19.42620 | 4757 ft | 236 kts | 265° |
| 2026-04-28 17:24 | 50.47535 | 19.40061 | 4751 ft | 236 kts | 269° |
| 2026-04-28 17:25 | 50.47536 | 19.37539 | 4460 ft | 222 kts | 270° |
| 2026-04-28 17:25 | 50.47545 | 19.33009 | 3886 ft | 190 kts | 270° |
| 2026-04-28 17:25 | 50.47549 | 19.31042 | 3621 ft | 175 kts | 269° |
| 2026-04-28 17:26 | 50.47553 | 19.29197 | 3417 ft | 163 kts | 269° |
| 2026-04-28 17:26 | 50.47557 | 19.27510 | 3194 ft | 147 kts | 269° |
| 2026-04-28 17:26 | 50.47560 | 19.25911 | 3004 ft | 147 kts | 269° |
| 2026-04-28 17:26 | 50.47563 | 19.24328 | 2811 ft | 145 kts | 269° |
| 2026-04-28 17:27 | 50.47568 | 19.22740 | 2614 ft | 145 kts | 269° |
| 2026-04-28 17:27 | 50.47571 | 19.21167 | 2422 ft | 144 kts | 269° |
| 2026-04-28 17:27 | 50.47575 | 19.19580 | 2224 ft | 144 kts | 270° |
| 2026-04-28 17:27 | 50.47578 | 19.18009 | 2038 ft | 144 kts | 269° |
| 2026-04-28 17:28 | 50.47582 | 19.16453 | 1848 ft | 143 kts | 269° |
| 2026-04-28 17:28 | 50.47589 | 19.13334 | 1471 ft | 143 kts | 269° |
| 2026-04-28 17:28 | 50.47594 | 19.11779 | 1286 ft | 142 kts | 269° |
| 2026-04-28 17:29 | 50.47597 | 19.10237 | 1058 ft | 141 kts | 269° |
| 2026-04-28 17:29 | 50.47595 | 19.08802 | 1000 ft | 101 kts | 270° |
| 2026-04-28 17:29 | 50.47594 | 19.08120 | 1002 ft | 43 kts | 269° |
| 2026-04-28 17:30 | 50.47569 | 19.07099 | 1001 ft | 39 kts | 251° |
| 2026-04-28 17:30 | 50.47459 | 19.06763 | 998 ft | 17 kts | 238° |
| 2026-04-28 17:30 | 50.47382 | 19.06630 | 1001 ft | 15 kts | 184° |
| 2026-04-28 17:31 | 50.47271 | 19.06637 | 1001 ft | 17 kts | 171° |
| 2026-04-28 17:31 | 50.47218 | 19.06919 | 999 ft | 9 kts | 155° |
| 2026-04-28 17:32 | 50.47150 | 19.06920 | 1003 ft | 0 kts | 181° |